Observations for STANSTED AIRPORT, United Kingdom (EGSS)

EGSS 180520Z AUTO 24010KT 9999 FEW024 15/12 Q1017   
EGSS 180450Z 26006KT 9999 SCT009 BKN018 BKN022 15/13 Q1017  
EGSS 180420Z AUTO 27009KT 7000 -RA BKN004 OVC013 15/14 Q1017
EGSS 180350Z AUTO 24008KT 9999 BKN005 OVC015 15/15 Q1016
EGSS 180320Z AUTO 24008KT 9000 BKN005 OVC010 15/15 Q1016
EGSS 180250Z AUTO 23008KT 4900 BR BKN005 OVC014 15/15 Q1016 
EGSS 180220Z AUTO 23008KT 3100 -DZ OVC005 15/15 Q1016   
EGSS 180150Z AUTO 23009KT 8000 OVC004 15/14 Q1016   
EGSS 180120Z AUTO 23008KT 7000 OVC004 15/14 Q1016   
EGSS 180050Z AUTO 23009KT 9999 OVC005 15/14 Q1016   
EGSS 180020Z AUTO 23010KT 9999 OVC005 15/14 Q1016   
EGSS 172350Z AUTO 22011KT 9999 OVC006 15/14 Q1016   
EGSS 172320Z 22011KT 9999 OVC008 15/14 Q1016
EGSS 172250Z AUTO 22008KT 9999 OVC009 15/14 Q1017   
EGSS 172220Z AUTO 22009KT 9999 OVC009 15/13 Q1017   
EGSS 172150Z AUTO 22010KT 9999 OVC010 15/13 Q1017   
EGSS 172120Z AUTO 21010KT 9999 OVC010 15/13 Q1017   
EGSS 172050Z AUTO 21010KT 9999 OVC010 15/13 Q1016   
EGSS 172020Z AUTO 21012KT 9999 OVC011 15/13 Q1016   
EGSS 171950Z AUTO 21014KT 9999 OVC012 15/13 Q1016   
EGSS 171920Z AUTO 22014KT 9999 OVC015 15/12 Q1016   
EGSS 171850Z AUTO 22015KT 9999 OVC019 16/12 Q1016   
EGSS 171820Z AUTO 21014KT 9999 BKN021 16/12 Q1016   
EGSS 171750Z AUTO 22016KT 9999 BKN024 17/12 Q1016   
EGSS 171720Z AUTO 22012KT 9999 OVC024 17/12 Q1016   
EGSS 171650Z AUTO 22014KT 9999 BKN024 OVC029 17/11 Q1016
EGSS 171620Z AUTO 22013KT 9999 BKN024 OVC029 17/12 Q1016
EGSS 171550Z AUTO 22014KT 9999 OVC027 17/11 Q1016   
EGSS 171520Z AUTO 22012KT 9999 BKN029 18/11 Q1016   
EGSS 171450Z AUTO 23010KT 9999 OVC031 17/11 Q1016   
EGSS 171420Z AUTO 23012KT 9999 OVC034 18/10 Q1016   
EGSS 171350Z AUTO 23012KT 9999 OVC035 18/10 Q1016   
EGSS 171320Z AUTO 24010KT 220V280 9999 BKN035 OVC042 18/10 Q1016
EGSS 171250Z AUTO 23013KT 9999 OVC036 18/10 Q1016   
EGSS 171220Z AUTO 23013KT 210V270 9999 BKN037 OVC049 18/10 Q1016
EGSS 171150Z AUTO 25012KT 9999 SCT035 BKN045 18/09 Q1016
EGSS 171120Z AUTO 23012KT 9999 SCT030 BKN039 OVC046 17/09 Q1016 
EGSS 171050Z AUTO 23011KT 200V270 9999 SCT024 BKN029 BKN041 17/10 Q1016 
EGSS 171020Z AUTO 23010KT 190V260 9999 BKN023 BKN032 17/11 Q1016
EGSS 170950Z AUTO 23010KT 210V270 9999 BKN018 BKN029 16/11 Q1016
EGSS 170920Z AUTO 23009KT 9999 BKN014 BKN019 BKN025 15/12 Q1016 
EGSS 170850Z AUTO 25006KT 220V280 9999 -RA BKN012 BKN030 15/12 Q1016
EGSS 170820Z AUTO 24009KT 9999 -RA FEW012 BKN039 14/12 Q1016
EGSS 170750Z AUTO 24009KT 9999 -RA FEW042 13/12 Q1016   
EGSS 170720Z AUTO 24009KT 9999 -RA NCD 13/11 Q1016  
EGSS 170650Z AUTO 24010KT 9999 -RA NCD 13/11 Q1016  
EGSS 170620Z AUTO 24009KT 9999 NCD 13/10 Q1015  
EGSS 170550Z AUTO 24007KT 9999 NCD 13/10 Q1015  
EGSS 170520Z AUTO 23007KT 9999 NCD 12/10 Q1015  
EGSS 170450Z AUTO 23007KT 9999 NCD 12/10 Q1015